Berclair, Mississippi
Current Conditions -  °F | °C
As of 5:53 AM on Thursday 27 Nov 2014 (Local Time) from KGWO Reporting Station
Clear Clear  
Wind Chill: 33°   Ceiling: Unl
Heat Index: 38°   Visibility: 10mi
Dew Point: 29°   Wind: 6mph
Humidity: 70%   Direction: 320°NW
Pressure: 30.42"   Gusts: NA
Location:  33.4064°N, 90.3812°W
Report Text: KGWO 271153Z AUTO 32005KT 10SM CLR 03/M02 A3042 RMK AO2 SLP300 T00331017 10039 21011 53036 TSNO
Loading
Personal Weather Stations






























Interactive Weather Map New forecast layout! Learn more

10-Day Weather Forecast

Advertisements
Track Severe Weather on mobile